Time;durP1;ratioP1;P1;durP2;ratioP2;P2;SDS_P1;SDS_P2;PMS_P1;PMS_P2;Temp;Humidity;BMP_temperature;BMP_pressure;BME280_temperature;BME280_humidity;BME280_pressure;Samples;Min_cycle;Max_cycle;Signal;HPM_P1;HPM_P2
2022/04/29 00:02:51;;;;;;;5.33;4.83;;;10.10;82.70;;;;;;6316055;28;20475;-69
2022/04/29 00:05:55;;;;;;;7.93;4.50;;;10.20;82.70;;;;;;6330923;28;20460;-68
2022/04/29 00:08:58;;;;;;;5.40;5.00;;;10.10;82.90;;;;;;6328983;28;20618;-68
2022/04/29 00:12:02;;;;;;;4.87;4.40;;;10.10;83.20;;;;;;6329024;28;20465;-68
2022/04/29 00:15:09;;;;;;;4.90;4.50;;;10.10;83.40;;;;;;6327730;28;20968;-69
2022/04/29 00:18:12;;;;;;;4.00;3.63;;;10.10;83.70;;;;;;6326650;28;20464;-67
2022/04/29 00:21:15;;;;;;;6.00;5.20;;;10.10;83.90;;;;;;6325233;28;20480;-66
2022/04/29 00:24:18;;;;;;;5.03;4.63;;;10.10;84.00;;;;;;6325403;28;20480;-65
2022/04/29 00:27:21;;;;;;;5.90;4.57;;;10.00;84.10;;;;;;6326124;28;20472;-66
2022/04/29 00:30:26;;;;;;;5.73;5.20;;;10.00;84.50;;;;;;6328173;28;20472;-65
2022/04/29 00:33:29;;;;;;;5.20;4.80;;;10.00;84.80;;;;;;6326793;28;20472;-67
2022/04/29 00:36:32;;;;;;;6.30;5.70;;;10.00;84.70;;;;;;6328122;28;20461;-68
2022/04/29 00:39:35;;;;;;;6.03;5.43;;;9.90;86.60;;;;;;6325929;28;20805;-68
2022/04/29 00:42:39;;;;;;;5.20;4.73;;;9.90;88.00;;;;;;6325200;28;20822;-68
2022/04/29 00:45:43;;;;;;;6.23;5.40;;;9.90;89.10;;;;;;6325094;28;20980;-68
2022/04/29 00:48:46;;;;;;;5.20;4.80;;;9.90;88.90;;;;;;6326387;28;20468;-68
2022/04/29 00:51:51;;;;;;;4.50;4.13;;;9.90;89.10;;;;;;6325786;28;20476;-67
2022/04/29 00:54:58;;;;;;;5.33;4.77;;;9.90;89.40;;;;;;6329587;28;20492;-68
2022/04/29 00:58:07;;;;;;;5.67;5.00;;;9.90;89.00;;;;;;6329426;28;20460;-68
2022/04/29 01:01:14;;;;;;;5.03;4.73;;;9.90;88.10;;;;;;6328678;28;20461;-69
2022/04/29 01:04:22;;;;;;;5.07;4.67;;;9.90;87.90;;;;;;6327275;28;20468;-68
2022/04/29 01:07:25;;;;;;;5.40;4.40;;;9.80;87.90;;;;;;6323086;28;20466;-68
2022/04/29 01:10:28;;;;;;;4.57;4.23;;;9.90;88.20;;;;;;6293399;28;20474;-69
2022/04/29 01:13:32;;;;;;;5.20;4.80;;;9.80;88.20;;;;;;6310941;28;20481;-69
2022/04/29 01:16:37;;;;;;;5.30;4.80;;;9.90;88.60;;;;;;6311816;28;20481;-69
2022/04/29 01:19:40;;;;;;;5.97;5.47;;;9.90;88.60;;;;;;6301732;28;20465;-69
2022/04/29 01:22:45;;;;;;;5.47;4.93;;;9.90;88.30;;;;;;6300857;28;20612;-69
2022/04/29 01:25:48;;;;;;;5.90;5.40;;;10.00;87.40;;;;;;6300713;28;20473;-69
2022/04/29 01:28:53;;;;;;;5.63;5.23;;;10.00;87.00;;;;;;6300782;28;20476;-69
2022/04/29 01:31:56;;;;;;;5.43;4.93;;;10.00;86.90;;;;;;6300233;28;20481;-69
2022/04/29 01:35:00;;;;;;;5.20;4.80;;;10.00;86.70;;;;;;6300635;28;20496;-69
2022/04/29 01:38:04;;;;;;;6.53;4.60;;;10.10;87.00;;;;;;6300368;28;20480;-69
2022/04/29 01:41:07;;;;;;;6.70;4.97;;;10.00;86.70;;;;;;6300389;28;20488;-69
2022/04/29 01:44:10;;;;;;;5.03;4.53;;;10.10;86.10;;;;;;6300937;28;20476;-69
2022/04/29 01:47:14;;;;;;;5.27;4.77;;;10.10;86.30;;;;;;6300596;28;20488;-69
2022/04/29 01:50:17;;;;;;;5.20;4.70;;;10.10;86.40;;;;;;6300180;28;20485;-69
2022/04/29 01:53:21;;;;;;;5.20;4.80;;;10.10;86.70;;;;;;6299907;28;20462;-68
2022/04/29 01:56:32;;;;;;;7.70;4.90;;;10.10;86.80;;;;;;6300591;28;20452;-69
2022/04/29 01:59:36;;;;;;;5.20;4.57;;;10.00;86.90;;;;;;6299581;28;20724;-69
2022/04/29 02:02:40;;;;;;;4.50;4.10;;;10.00;87.30;;;;;;6290827;28;20473;-68
2022/04/29 02:05:44;;;;;;;7.73;5.47;;;9.90;88.50;;;;;;6299802;28;20474;-69
2022/04/29 02:08:49;;;;;;;6.13;5.40;;;10.00;87.80;;;;;;6299595;28;20476;-68
2022/04/29 02:12:07;;;;;;;7.63;6.20;;;9.90;89.30;;;;;;6299869;28;20480;-68
2022/04/29 02:15:11;;;;;;;11.63;6.50;;;9.90;89.70;;;;;;6300147;28;20485;-68
2022/04/29 02:18:14;;;;;;;7.17;6.47;;;9.90;90.00;;;;;;6299546;28;20481;-68
2022/04/29 02:21:17;;;;;;;6.27;5.77;;;9.90;90.00;;;;;;6299843;28;20478;-68
2022/04/29 02:24:21;;;;;;;6.73;6.03;;;9.80;90.10;;;;;;6299891;28;20849;-69
2022/04/29 02:27:25;;;;;;;6.43;5.53;;;9.80;90.10;;;;;;6300344;28;20468;-69
2022/04/29 02:30:28;;;;;;;7.40;5.50;;;9.90;90.20;;;;;;6299696;28;20480;-69
2022/04/29 02:33:32;;;;;;;7.07;5.83;;;9.90;90.10;;;;;;6299818;28;20482;-69
2022/04/29 02:36:35;;;;;;;6.53;5.03;;;9.80;90.10;;;;;;6299683;28;20466;-69
2022/04/29 02:39:40;;;;;;;5.70;5.20;;;9.80;90.10;;;;;;6299916;28;20480;-68
2022/04/29 02:42:44;;;;;;;6.83;6.13;;;9.90;90.20;;;;;;6299586;28;20480;-68
2022/04/29 02:45:47;;;;;;;7.00;6.30;;;9.90;90.20;;;;;;6299548;28;20461;-69
2022/04/29 02:48:50;;;;;;;5.40;5.00;;;9.90;90.20;;;;;;6299414;28;20799;-69
2022/04/29 02:51:53;;;;;;;8.87;6.67;;;9.90;90.20;;;;;;6299709;28;20480;-69
2022/04/29 02:54:58;;;;;;;5.73;5.27;;;9.90;90.10;;;;;;6299306;28;20818;-68
2022/04/29 02:58:01;;;;;;;5.57;5.07;;;9.90;90.20;;;;;;6303778;28;20496;-69
2022/04/29 03:01:04;;;;;;;6.70;6.00;;;9.80;90.20;;;;;;6303825;28;20484;-69
2022/04/29 03:04:08;;;;;;;5.70;5.20;;;9.80;90.30;;;;;;6303794;28;20560;-69
2022/04/29 03:07:11;;;;;;;7.93;6.20;;;9.80;90.20;;;;;;6299499;28;20774;-68
2022/04/29 03:10:15;;;;;;;8.30;6.10;;;9.80;90.30;;;;;;6303224;28;20488;-69
2022/04/29 03:13:18;;;;;;;6.50;5.63;;;9.70;90.30;;;;;;6303580;28;20477;-69
2022/04/29 03:16:22;;;;;;;5.37;4.87;;;9.70;90.30;;;;;;6303297;28;20472;-69
2022/04/29 03:19:25;;;;;;;5.80;5.27;;;9.60;90.50;;;;;;6303580;28;20554;-69
2022/04/29 03:22:28;;;;;;;5.50;4.97;;;9.60;90.60;;;;;;6304197;28;20477;-68
2022/04/29 03:25:32;;;;;;;7.63;5.63;;;9.50;90.60;;;;;;6303433;28;20469;-68
2022/04/29 03:28:36;;;;;;;6.00;5.37;;;9.50;90.70;;;;;;6303552;28;20495;-69
2022/04/29 03:31:39;;;;;;;13.10;5.53;;;9.50;90.80;;;;;;6305643;28;20481;-69
2022/04/29 03:34:42;;;;;;;5.63;5.03;;;9.50;90.80;;;;;;6303402;28;20957;-69
2022/04/29 03:37:45;;;;;;;5.93;5.33;;;9.50;91.00;;;;;;6302935;28;20473;-68
2022/04/29 03:40:50;;;;;;;6.70;6.00;;;9.40;90.90;;;;;;6302966;28;20470;-69
2022/04/29 03:43:53;;;;;;;6.90;5.60;;;9.50;91.00;;;;;;6303056;28;20481;-69
2022/04/29 03:46:56;;;;;;;6.17;5.57;;;9.40;91.00;;;;;;6302951;28;20469;-69
2022/04/29 03:50:01;;;;;;;7.23;5.97;;;9.40;91.10;;;;;;6302864;28;20481;-69
2022/04/29 03:53:05;;;;;;;6.50;5.50;;;9.30;91.30;;;;;;6302585;28;20473;-69
2022/04/29 03:56:09;;;;;;;8.80;6.10;;;9.30;91.40;;;;;;6302464;28;20819;-69
2022/04/29 03:59:12;;;;;;;8.87;6.27;;;9.30;91.30;;;;;;6302242;28;20481;-69
2022/04/29 04:02:16;;;;;;;7.87;7.03;;;9.30;91.40;;;;;;6302326;28;20465;-68
2022/04/29 04:05:19;;;;;;;7.40;6.20;;;9.20;91.40;;;;;;6302066;28;20793;-69
2022/04/29 04:08:23;;;;;;;6.00;5.47;;;9.30;91.90;;;;;;6302089;28;20473;-69
2022/04/29 04:11:27;;;;;;;5.33;4.83;;;9.20;91.50;;;;;;6302303;28;20477;-69
2022/04/29 04:14:30;;;;;;;7.90;6.00;;;9.20;91.40;;;;;;6302872;28;20476;-68
2022/04/29 04:17:33;;;;;;;8.40;6.20;;;9.20;91.40;;;;;;6301997;28;20905;-69
2022/04/29 04:20:36;;;;;;;7.90;6.30;;;9.30;91.50;;;;;;6302138;28;20750;-69
2022/04/29 04:23:40;;;;;;;7.17;6.37;;;9.30;91.40;;;;;;6301582;28;20458;-68
2022/04/29 04:26:44;;;;;;;9.07;6.77;;;9.30;91.40;;;;;;6302062;28;20932;-68
2022/04/29 04:29:47;;;;;;;10.20;5.70;;;9.40;91.40;;;;;;6301785;28;20484;-68
2022/04/29 04:32:50;;;;;;;7.50;6.40;;;9.30;91.30;;;;;;6301560;28;20476;-68
2022/04/29 04:35:53;;;;;;;7.57;6.20;;;9.50;91.40;;;;;;6302054;28;20462;-67
2022/04/29 04:38:56;;;;;;;9.27;6.10;;;9.50;91.30;;;;;;6301598;28;20821;-68
2022/04/29 04:42:01;;;;;;;6.73;6.03;;;9.50;91.20;;;;;;6301421;28;20465;-68
2022/04/29 04:45:04;;;;;;;7.97;6.33;;;9.50;91.20;;;;;;6300924;28;20492;-68
2022/04/29 04:48:08;;;;;;;8.00;7.20;;;9.50;91.30;;;;;;6301296;28;20465;-68
2022/04/29 04:51:11;;;;;;;8.27;5.67;;;9.60;91.30;;;;;;6300963;28;20465;-68
2022/04/29 04:54:14;;;;;;;6.73;6.13;;;9.60;91.40;;;;;;6301197;28;20477;-66
2022/04/29 04:57:19;;;;;;;7.10;6.40;;;9.70;91.10;;;;;;6301196;28;20465;-66
2022/04/29 05:00:22;;;;;;;6.07;5.47;;;9.80;90.90;;;;;;6300720;28;20474;-68
2022/04/29 05:03:25;;;;;;;6.77;5.90;;;9.90;90.70;;;;;;6300704;28;20492;-68
2022/04/29 05:06:29;;;;;;;6.67;6.00;;;10.10;89.90;;;;;;6301413;28;20470;-66
2022/04/29 05:09:32;;;;;;;7.43;6.30;;;10.20;89.40;;;;;;6301433;28;20488;-66
2022/04/29 05:12:40;;;;;;;8.70;6.30;;;10.40;88.70;;;;;;6301016;28;20477;-66
2022/04/29 05:15:44;;;;;;;7.70;6.10;;;10.70;87.60;;;;;;6291815;28;20474;-69
2022/04/29 05:18:47;;;;;;;6.20;5.50;;;10.90;86.90;;;;;;6302423;28;20500;-68
2022/04/29 05:21:51;;;;;;;6.63;5.97;;;11.10;86.00;;;;;;6303730;28;20476;-68
2022/04/29 05:24:54;;;;;;;7.50;6.80;;;11.20;85.10;;;;;;6309483;28;20479;-68
2022/04/29 05:27:58;;;;;;;7.87;5.67;;;11.50;84.30;;;;;;6304457;28;20472;-69
2022/04/29 05:31:02;;;;;;;6.97;5.50;;;11.80;83.60;;;;;;6302633;28;20466;-68
2022/04/29 05:34:06;;;;;;;7.77;5.60;;;12.10;81.90;;;;;;6300657;28;20485;-68
2022/04/29 05:37:10;;;;;;;7.00;5.50;;;12.60;80.40;;;;;;6300492;28;20483;-68
2022/04/29 05:43:35;;;;;;;7.90;6.47;;;13.60;75.60;;;;;;6300645;28;20477;-67
2022/04/29 05:46:38;;;;;;;7.80;5.80;;;14.10;73.40;;;;;;6300483;28;20469;-67
2022/04/29 05:49:42;;;;;;;6.63;6.03;;;14.60;72.00;;;;;;6300593;28;20469;-67
2022/04/29 05:52:46;;;;;;;5.97;5.37;;;15.10;69.20;;;;;;6300151;28;20484;-67
2022/04/29 05:55:49;;;;;;;11.47;5.73;;;15.50;67.60;;;;;;6299788;28;20469;-67
2022/04/29 05:58:54;;;;;;;6.27;5.20;;;16.10;65.90;;;;;;6300241;28;20473;-66
2022/04/29 06:01:57;;;;;;;8.27;5.03;;;16.60;63.20;;;;;;6299702;28;20461;-66
2022/04/29 06:05:01;;;;;;;6.10;5.60;;;17.00;60.70;;;;;;6299681;28;20473;-67
2022/04/29 06:08:05;;;;;;;6.90;5.93;;;17.50;59.00;;;;;;6299336;28;20466;-67
2022/04/29 06:11:08;;;;;;;5.60;5.10;;;17.90;58.00;;;;;;6299650;28;20469;-67
2022/04/29 06:14:13;;;;;;;6.80;6.03;;;18.50;56.40;;;;;;6299523;28;20795;-67
2022/04/29 06:17:16;;;;;;;7.50;5.27;;;19.00;54.60;;;;;;6299611;28;20465;-67
2022/04/29 06:20:19;;;;;;;7.57;5.60;;;19.70;53.70;;;;;;6290163;28;20231;-67
2022/04/29 06:23:22;;;;;;;6.13;5.53;;;20.20;51.80;;;;;;6299848;28;20531;-67
2022/04/29 06:26:25;;;;;;;5.90;5.40;;;20.80;49.80;;;;;;6299769;28;20661;-67
2022/04/29 06:29:30;;;;;;;9.10;5.63;;;21.80;47.70;;;;;;6299381;28;20238;-68
2022/04/29 06:32:33;;;;;;;8.60;5.10;;;22.30;46.00;;;;;;6303913;28;20556;-66
2022/04/29 06:35:41;;;;;;;7.07;5.70;;;22.90;44.30;;;;;;6304398;28;20639;-67
2022/04/29 06:38:44;;;;;;;6.50;5.70;;;23.50;42.90;;;;;;6304794;28;20227;-67
2022/04/29 06:41:47;;;;;;;6.40;5.73;;;24.10;41.00;;;;;;6304515;28;20230;-67
2022/04/29 06:44:52;;;;;;;5.60;5.10;;;24.30;40.20;;;;;;6304643;28;20230;-67
2022/04/29 06:47:55;;;;;;;8.33;5.00;;;25.10;38.70;;;;;;6304256;28;20230;-68
2022/04/29 06:50:59;;;;;;;8.77;5.80;;;25.50;37.30;;;;;;6304586;28;20681;-66
2022/04/29 06:54:03;;;;;;;6.90;6.20;;;25.90;35.90;;;;;;6304116;28;20226;-66
2022/04/29 06:57:09;;;;;;;7.07;5.07;;;26.70;35.10;;;;;;6304290;28;20234;-68
2022/04/29 07:00:15;;;;;;;7.17;5.63;;;27.60;33.50;;;;;;6304114;28;20222;-68
2022/04/29 07:03:18;;;;;;;5.20;4.67;;;27.70;31.50;;;;;;6304164;28;20242;-67
2022/04/29 07:06:22;;;;;;;8.77;5.07;;;27.90;31.00;;;;;;6303694;28;20249;-68
2022/04/29 07:09:25;;;;;;;6.70;5.33;;;27.90;30.50;;;;;;6303831;28;20237;-67
2022/04/29 07:12:48;;;;;;;5.33;4.83;;;28.20;30.10;;;;;;6303491;28;20233;-67
2022/04/29 07:15:53;;;;;;;5.33;4.83;;;28.50;29.50;;;;;;6304402;28;20234;-67
2022/04/29 07:18:57;;;;;;;5.73;5.23;;;29.10;28.90;;;;;;6303191;28;20674;-67
2022/04/29 07:22:00;;;;;;;5.93;4.50;;;30.30;28.20;;;;;;6298921;28;20231;-67
2022/04/29 07:25:03;;;;;;;5.50;4.77;;;31.40;26.90;;;;;;6303271;28;20234;-68
2022/04/29 07:28:07;;;;;;;6.15;5.55;;;31.80;26.00;;;;;;6303385;28;20242;-67
2022/04/29 07:31:12;;;;;;;6.28;4.05;;;31.90;25.40;;;;;;6303047;28;20226;-67
2022/04/29 07:34:16;;;;;;;4.30;3.83;;;32.60;24.50;;;;;;6305357;28;20230;-67
2022/04/29 07:44:01;;;;;;;4.13;3.83;;;35.30;21.50;;;;;;6310736;28;20651;-67
2022/04/29 07:47:07;;;;;;;5.85;4.10;;;36.20;20.50;;;;;;6314278;28;20214;-67
2022/04/29 07:50:11;;;;;;;5.32;4.80;;;37.00;19.80;;;;;;6312845;28;20276;-67
2022/04/29 07:53:15;;;;;;;3.78;3.47;;;37.50;17.60;;;;;;6317182;28;20235;-70
2022/04/29 07:56:18;;;;;;;4.05;3.75;;;36.80;18.30;;;;;;6313272;28;20536;-70
2022/04/29 07:59:21;;;;;;;4.20;3.63;;;37.40;18.10;;;;;;6315996;28;20226;-70
2022/04/29 08:02:26;;;;;;;4.00;3.65;;;37.60;17.40;;;;;;6315205;28;20214;-70
2022/04/29 08:05:30;;;;;;;3.88;3.53;;;37.80;17.10;;;;;;6325731;28;20638;-71
2022/04/29 08:08:33;;;;;;;4.75;4.35;;;35.80;17.60;;;;;;6311591;28;20242;-66
2022/04/29 08:11:37;;;;;;;4.78;4.28;;;33.40;18.30;;;;;;6323954;28;20205;-68
2022/04/29 08:14:41;;;;;;;5.55;4.80;;;30.30;20.70;;;;;;6327014;28;20222;-68
2022/04/29 08:17:52;;;;;;;4.65;4.25;;;30.80;21.40;;;;;;6327278;28;20562;-71
2022/04/29 08:20:56;;;;;;;4.55;4.07;;;34.10;19.40;;;;;;6327224;28;20251;-64
2022/04/29 08:23:59;;;;;;;4.43;3.90;;;36.30;18.50;;;;;;6326780;28;20233;-67
2022/04/29 08:27:03;;;;;;;3.75;3.53;;;37.80;17.40;;;;;;6320822;28;20233;-70
2022/04/29 08:30:07;;;;;;;5.50;3.97;;;37.40;17.00;;;;;;6327253;28;20217;-69
2022/04/29 08:33:15;;;;;;;4.25;3.83;;;38.30;16.70;;;;;;6326630;28;20236;-69
2022/04/29 08:36:18;;;;;;;4.88;4.47;;;39.20;16.30;;;;;;6326768;28;20237;-69
2022/04/29 08:39:21;;;;;;;4.07;3.72;;;39.20;15.60;;;;;;6351603;28;20316;-68
2022/04/29 08:42:27;;;;;;;3.80;3.50;;;40.40;15.60;;;;;;6352701;28;20233;-67
2022/04/29 08:45:30;;;;;;;4.20;3.80;;;41.20;14.80;;;;;;6351659;28;20236;-66
2022/04/29 08:48:36;;;;;;;4.07;3.67;;;40.40;14.60;;;;;;6351514;28;20241;-66
2022/04/29 08:51:39;;;;;;;3.97;3.58;;;39.00;15.50;;;;;;6351267;28;20308;-66
2022/04/29 09:01:26;;;;;;;4.00;3.70;;;36.10;16.50;;;;;;6326312;28;20237;-69
2022/04/29 09:04:31;;;;;;;7.72;4.38;;;34.70;17.60;;;;;;6317804;28;20235;-67
2022/04/29 09:07:59;;;;;;;4.03;3.72;;;32.90;18.20;;;;;;6300515;28;20305;-66
2022/04/29 09:11:02;;;;;;;4.85;3.65;;;30.90;19.50;;;;;;6307861;28;20221;-65
2022/04/29 09:14:19;;;;;;;4.00;3.67;;;30.30;20.50;;;;;;6327402;28;20230;-66
2022/04/29 09:17:29;;;;;;;5.57;4.10;;;29.20;21.40;;;;;;6325599;28;20214;-66
2022/04/29 09:20:35;;;;;;;4.80;4.40;;;28.50;22.80;;;;;;6325558;28;20202;-66
2022/04/29 09:23:40;;;;;;;4.63;4.23;;;27.80;24.00;;;;;;6325586;28;20233;-67
2022/04/29 09:26:43;;;;;;;4.57;4.23;;;27.40;24.30;;;;;;6325538;28;20233;-66
2022/04/29 09:29:47;;;;;;;3.93;3.63;;;27.10;23.80;;;;;;6316252;28;20257;-66
2022/04/29 09:32:50;;;;;;;4.10;3.43;;;26.90;24.10;;;;;;6324688;27;20324;-66
2022/04/29 09:35:56;;;;;;;4.20;3.63;;;26.80;24.10;;;;;;6325488;28;20308;-66
2022/04/29 09:42:37;;;;;;;4.60;3.60;;;25.90;24.90;;;;;;6324938;28;20222;-67
2022/04/29 09:45:40;;;;;;;4.37;3.73;;;25.60;25.50;;;;;;6324968;28;20229;-67
2022/04/29 09:49:06;;;;;;;4.07;3.50;;;25.60;25.00;;;;;;6324823;28;20226;-66
2022/04/29 09:52:19;;;;;;;5.00;3.13;;;25.50;25.00;;;;;;6324859;27;20527;-66
2022/04/29 09:55:22;;;;;;;4.80;3.50;;;25.50;25.60;;;;;;6325074;28;20256;-66
2022/04/29 09:58:25;;;;;;;4.00;3.70;;;25.30;25.10;;;;;;6324985;28;20237;-67
2022/04/29 10:01:30;;;;;;;3.90;3.60;;;25.00;25.60;;;;;;6324750;28;20548;-66
2022/04/29 10:04:35;;;;;;;5.53;4.40;;;24.80;25.70;;;;;;6313415;28;20223;-67
2022/04/29 10:07:42;;;;;;;5.43;4.33;;;24.20;26.10;;;;;;6307319;28;20554;-66
2022/04/29 10:10:47;;;;;;;6.53;3.93;;;23.70;26.50;;;;;;6310533;28;20242;-66
2022/04/29 10:13:51;;;;;;;3.40;3.10;;;23.80;26.40;;;;;;6310368;28;20230;-67
2022/04/29 10:23:48;;;;;;;5.83;4.00;;;24.30;26.70;;;;;;6275952;28;20244;-66
2022/04/29 10:26:54;;;;;;;4.07;3.67;;;24.70;26.40;;;;;;6294255;28;20365;-66
2022/04/29 10:29:58;;;;;;;3.80;3.50;;;24.80;25.70;;;;;;6273142;28;20238;-66
2022/04/29 10:33:06;;;;;;;3.73;3.43;;;24.60;26.30;;;;;;6292141;28;20242;-67
2022/04/29 10:36:10;;;;;;;4.70;4.30;;;24.50;26.00;;;;;;6297676;28;20241;-66
2022/04/29 10:39:19;;;;;;;4.50;2.93;;;24.70;26.10;;;;;;6297594;28;20226;-66
2022/04/29 10:42:22;;;;;;;3.73;3.43;;;24.60;25.70;;;;;;6296654;28;20313;-66
2022/04/29 10:45:25;;;;;;;4.10;3.80;;;24.60;26.20;;;;;;6296883;28;20302;-67
2022/04/29 10:48:33;;;;;;;4.67;3.93;;;24.80;26.10;;;;;;6297920;28;20234;-67
2022/04/29 10:51:47;;;;;;;4.00;3.70;;;24.80;26.00;;;;;;6300029;28;20235;-64
2022/04/29 10:54:57;;;;;;;4.40;4.00;;;24.70;26.30;;;;;;6301676;28;20235;-70
2022/04/29 10:58:05;;;;;;;4.00;3.70;;;25.00;26.70;;;;;;6279060;28;20231;-63
2022/04/29 11:01:23;;;;;;;4.00;3.63;;;25.10;26.00;;;;;;6274616;28;20224;-62
2022/04/29 11:04:42;;;;;;;5.30;4.00;;;24.80;26.20;;;;;;6279554;28;20288;-62
2022/04/29 11:07:48;;;;;;;3.93;3.50;;;24.80;26.70;;;;;;6297811;28;20702;-62
2022/04/29 11:10:58;;;;;;;3.47;3.27;;;24.60;26.60;;;;;;6297836;28;20698;-62
2022/04/29 11:14:01;;;;;;;4.10;3.70;;;24.40;27.40;;;;;;6298680;28;20231;-63
2022/04/29 11:17:12;;;;;;;3.83;3.53;;;24.20;26.90;;;;;;6300307;28;20246;-63
2022/04/29 11:20:20;;;;;;;4.60;4.20;;;24.10;27.30;;;;;;6302992;28;20288;-63
2022/04/29 11:26:53;;;;;;;3.70;3.40;;;24.40;26.70;;;;;;6303059;28;20231;-63
2022/04/29 11:30:01;;;;;;;4.53;4.23;;;24.40;26.60;;;;;;6303164;28;20227;-63
2022/04/29 11:33:04;;;;;;;4.20;3.90;;;24.20;26.40;;;;;;6302595;28;20690;-63
2022/04/29 11:36:09;;;;;;;4.07;3.67;;;23.80;26.80;;;;;;6298775;28;20230;-63
2022/04/29 11:39:15;;;;;;;4.57;4.17;;;23.30;27.40;;;;;;6302426;28;20227;-63
2022/04/29 11:42:20;;;;;;;4.43;4.03;;;23.00;28.10;;;;;;6302442;28;20306;-62
2022/04/29 11:45:25;;;;;;;4.30;3.90;;;22.30;28.20;;;;;;6302505;28;20251;-63
2022/04/29 11:48:28;;;;;;;3.97;3.63;;;22.30;28.50;;;;;;6302598;28;20259;-63
2022/04/29 11:51:31;;;;;;;4.23;3.83;;;22.50;28.70;;;;;;6302591;28;20238;-62
2022/04/29 11:54:34;;;;;;;4.37;4.00;;;22.70;28.70;;;;;;6302691;28;20237;-63
2022/04/29 11:57:45;;;;;;;4.30;3.90;;;22.80;28.80;;;;;;6302203;28;20250;-62
2022/04/29 12:00:54;;;;;;;4.03;3.67;;;22.80;28.80;;;;;;6301968;28;20235;-62
2022/04/29 12:03:57;;;;;;;4.80;4.10;;;22.90;28.30;;;;;;6299686;28;20752;-62
2022/04/29 12:07:02;;;;;;;5.00;3.80;;;23.20;28.40;;;;;;6277795;28;20242;-62
2022/04/29 12:10:17;;;;;;;3.90;3.50;;;23.60;28.00;;;;;;6277071;28;20242;-63
2022/04/29 12:13:21;;;;;;;4.10;3.80;;;23.80;27.90;;;;;;6299178;28;20235;-63
2022/04/29 12:16:25;;;;;;;3.53;3.23;;;23.70;27.60;;;;;;6301891;28;20340;-64
2022/04/29 12:19:28;;;;;;;6.00;3.83;;;23.80;27.40;;;;;;6301642;28;20237;-63
2022/04/29 12:22:33;;;;;;;3.37;3.17;;;23.90;27.40;;;;;;6301836;28;20227;-63
2022/04/29 12:25:39;;;;;;;4.27;3.70;;;24.10;27.50;;;;;;6301474;28;20300;-63
2022/04/29 12:28:52;;;;;;;3.97;3.67;;;24.40;27.20;;;;;;6301524;28;20524;-63
2022/04/29 12:35:19;;;;;;;4.10;3.40;;;23.80;27.50;;;;;;6301074;28;20239;-64
2022/04/29 12:38:24;;;;;;;4.70;3.87;;;23.70;27.80;;;;;;6301311;28;20223;-63
2022/04/29 12:41:29;;;;;;;4.63;4.20;;;23.70;27.50;;;;;;6301216;28;20242;-64
2022/04/29 12:45:07;;;;;;;6.77;4.37;;;23.80;27.10;;;;;;6300991;28;20687;-64
2022/04/29 12:48:11;;;;;;;3.60;3.30;;;23.60;27.50;;;;;;6302883;28;20219;-64
2022/04/29 12:51:25;;;;;;;2.83;2.63;;;23.40;27.50;;;;;;6301583;28;20239;-65
2022/04/29 12:54:29;;;;;;;4.37;3.97;;;23.40;28.30;;;;;;6301218;28;20242;-64
2022/04/29 12:57:32;;;;;;;3.53;3.30;;;23.60;27.60;;;;;;6301820;28;20242;-64
2022/04/29 13:00:38;;;;;;;3.60;3.30;;;23.70;27.40;;;;;;6301564;28;20237;-65
2022/04/29 13:03:41;;;;;;;5.10;4.60;;;23.70;27.60;;;;;;6301268;28;20231;-64
2022/04/29 13:06:45;;;;;;;4.60;4.00;;;23.30;27.60;;;;;;6276217;28;20871;-63
2022/04/29 13:09:48;;;;;;;4.63;3.70;;;22.60;28.20;;;;;;6275873;28;20706;-64
2022/04/29 13:12:51;;;;;;;4.20;3.80;;;22.40;28.70;;;;;;6275762;28;20240;-64
2022/04/29 13:15:56;;;;;;;4.17;3.00;;;22.40;28.70;;;;;;6275852;28;20223;-63
2022/04/29 13:19:00;;;;;;;3.80;3.50;;;22.40;29.30;;;;;;6275922;28;20743;-64
2022/04/29 13:22:03;;;;;;;3.53;3.33;;;22.60;28.60;;;;;;6276212;28;20563;-64
2022/04/29 13:25:10;;;;;;;5.13;3.30;;;22.70;28.50;;;;;;6276363;28;20600;-63
2022/04/29 13:28:14;;;;;;;5.43;3.60;;;22.80;28.70;;;;;;6283751;28;20249;-65
2022/04/29 13:31:18;;;;;;;3.90;3.50;;;23.00;28.30;;;;;;6300666;28;20227;-66
2022/04/29 13:34:21;;;;;;;3.83;3.33;;;22.90;28.30;;;;;;6300620;28;20233;-65
2022/04/29 13:37:24;;;;;;;4.63;4.07;;;23.10;28.70;;;;;;6296829;28;20234;-64
2022/04/29 13:40:28;;;;;;;4.27;3.87;;;22.90;28.20;;;;;;6299664;28;20520;-64
2022/04/29 13:43:34;;;;;;;4.23;3.83;;;22.70;28.90;;;;;;6273793;28;20695;-65
2022/04/29 13:46:59;;;;;;;4.23;3.63;;;22.80;28.50;;;;;;6298476;28;20585;-66
2022/04/29 13:50:03;;;;;;;4.30;3.90;;;23.00;28.40;;;;;;6299516;28;20668;-65
2022/04/29 13:53:09;;;;;;;4.20;3.90;;;23.10;28.50;;;;;;6299622;28;20314;-66
2022/04/29 13:56:13;;;;;;;3.43;3.23;;;22.90;28.70;;;;;;6299621;28;20289;-65
2022/04/29 13:59:16;;;;;;;4.50;4.10;;;22.70;29.20;;;;;;6299640;28;20678;-65
2022/04/29 14:02:20;;;;;;;4.73;3.43;;;22.60;28.70;;;;;;6310404;28;20579;-65
2022/04/29 14:05:24;;;;;;;5.60;3.60;;;22.50;28.80;;;;;;6310645;28;20575;-65
2022/04/29 14:08:28;;;;;;;3.60;3.40;;;22.40;28.60;;;;;;6274729;28;20240;-64
2022/04/29 14:11:31;;;;;;;3.97;3.57;;;22.20;29.00;;;;;;6274437;28;20210;-65
2022/04/29 14:14:34;;;;;;;4.20;3.60;;;22.20;29.20;;;;;;6274875;28;20224;-65
2022/04/29 14:17:39;;;;;;;4.17;3.80;;;22.20;29.00;;;;;;6274262;28;20224;-65
2022/04/29 14:20:42;;;;;;;5.50;3.80;;;22.10;29.20;;;;;;6296637;28;20217;-65
2022/04/29 14:23:45;;;;;;;4.17;3.77;;;22.00;29.40;;;;;;6273937;28;20231;-69
2022/04/29 14:26:48;;;;;;;3.80;2.90;;;22.00;29.50;;;;;;6273997;28;20232;-68
2022/04/29 14:29:51;;;;;;;3.83;3.43;;;22.10;29.50;;;;;;6274975;28;20228;-65
2022/04/29 14:32:58;;;;;;;6.00;4.00;;;22.10;29.50;;;;;;6277639;28;20235;-69
2022/04/29 14:36:02;;;;;;;3.73;3.30;;;22.10;29.70;;;;;;6273006;28;20238;-66
2022/04/29 14:39:05;;;;;;;7.70;3.60;;;22.30;29.50;;;;;;6273848;28;20224;-67
2022/04/29 14:42:09;;;;;;;3.63;3.33;;;22.30;29.40;;;;;;6274327;28;20223;-71
2022/04/29 14:45:12;;;;;;;4.67;3.70;;;22.10;29.50;;;;;;6275371;28;20223;-68
2022/04/29 14:48:17;;;;;;;4.20;3.80;;;21.90;29.90;;;;;;6298842;28;20556;-69
2022/04/29 14:51:20;;;;;;;3.60;3.30;;;21.80;29.70;;;;;;6300295;28;20709;-69
2022/04/29 14:54:23;;;;;;;3.40;3.20;;;21.90;29.80;;;;;;6303991;28;20231;-71
2022/04/29 14:57:27;;;;;;;3.60;3.07;;;22.00;29.40;;;;;;6303219;28;20226;-68
2022/04/29 15:00:32;;;;;;;4.10;3.70;;;21.80;29.60;;;;;;6302866;28;20616;-68
2022/04/29 15:03:37;;;;;;;3.23;2.70;;;21.60;29.40;;;;;;6303990;28;20237;-68
2022/04/29 15:06:41;;;;;;;3.00;2.80;;;21.60;29.70;;;;;;6303826;28;20223;-69
2022/04/29 15:16:25;;;;;;;5.10;3.37;;;21.50;30.00;;;;;;6303254;28;20301;-69
2022/04/29 15:19:30;;;;;;;6.20;3.57;;;21.50;30.20;;;;;;6304006;28;20310;-68
2022/04/29 15:22:33;;;;;;;5.47;4.90;;;21.40;30.60;;;;;;6305269;28;20306;-71
2022/04/29 15:25:37;;;;;;;3.33;3.07;;;21.20;31.10;;;;;;6304434;28;20664;-69
2022/04/29 15:28:40;;;;;;;3.77;3.47;;;21.20;31.00;;;;;;6303477;28;20223;-69
2022/04/29 15:31:44;;;;;;;4.50;4.10;;;21.20;31.40;;;;;;6297887;28;20281;-69
2022/04/29 15:34:49;;;;;;;5.30;4.40;;;21.10;31.00;;;;;;6301436;28;20223;-68
2022/04/29 15:37:52;;;;;;;4.20;3.80;;;21.10;31.00;;;;;;6302632;28;20227;-68
2022/04/29 15:40:57;;;;;;;3.60;3.30;;;21.00;31.00;;;;;;6302484;28;20549;-69
2022/04/29 15:44:00;;;;;;;3.47;3.20;;;20.90;31.50;;;;;;6307595;28;20252;-68
2022/04/29 15:47:03;;;;;;;4.00;3.60;;;21.00;31.40;;;;;;6312519;28;20217;-69
2022/04/29 15:50:08;;;;;;;4.13;3.77;;;20.90;31.30;;;;;;6317382;28;20222;-69
2022/04/29 15:53:13;;;;;;;5.07;4.07;;;20.90;30.80;;;;;;6311100;28;20249;-69
2022/04/29 15:56:16;;;;;;;3.87;3.40;;;20.80;31.00;;;;;;6303178;28;20226;-69
2022/04/29 15:59:20;;;;;;;4.03;3.60;;;20.80;31.00;;;;;;6302750;28;20230;-69
2022/04/29 16:02:24;;;;;;;3.53;3.23;;;20.70;31.10;;;;;;6302366;28;20238;-69
2022/04/29 16:05:29;;;;;;;4.57;3.60;;;20.70;31.20;;;;;;6316222;27;20237;-69
2022/04/29 16:08:32;;;;;;;3.60;3.30;;;20.70;31.40;;;;;;6327780;28;20230;-69
2022/04/29 16:11:35;;;;;;;5.70;3.97;;;20.80;31.50;;;;;;6327749;28;20286;-69
2022/04/29 16:14:39;;;;;;;4.20;3.60;;;20.90;32.00;;;;;;6328287;28;20557;-69
2022/04/29 16:21:05;;;;;;;3.80;3.40;;;20.20;33.00;;;;;;6332469;28;20222;-68
2022/04/29 16:27:28;;;;;;;3.43;2.83;;;20.10;33.80;;;;;;6327346;28;20237;-69
2022/04/29 16:30:32;;;;;;;4.13;3.73;;;20.10;33.70;;;;;;6327109;28;20240;-66
2022/04/29 16:33:38;;;;;;;4.10;3.80;;;20.20;33.80;;;;;;6327361;28;20230;-69
2022/04/29 16:36:43;;;;;;;4.50;4.10;;;20.20;34.00;;;;;;6328814;28;20665;-69
2022/04/29 16:39:47;;;;;;;4.57;3.63;;;19.90;33.90;;;;;;6333458;28;20234;-68
2022/04/29 16:42:52;;;;;;;3.47;3.20;;;19.80;34.40;;;;;;6330089;28;20242;-68
2022/04/29 16:45:56;;;;;;;4.67;4.13;;;19.80;34.90;;;;;;6327735;28;20655;-69
2022/04/29 16:48:59;;;;;;;3.53;3.23;;;19.60;35.20;;;;;;6313554;28;20238;-69
2022/04/29 16:52:05;;;;;;;4.27;3.87;;;19.40;35.30;;;;;;6300933;28;20683;-66